createdAt,value
2022-09-01T00:00:43.126Z,2.80
2022-09-01T00:01:43.369Z,2.90
2022-09-01T00:02:43.722Z,2.70
2022-09-01T00:03:43.997Z,2.60
2022-09-01T00:04:44.427Z,2.70
2022-09-01T00:05:44.658Z,2.40
2022-09-01T00:06:44.972Z,2.60
2022-09-01T00:07:45.254Z,2.60
2022-09-01T00:08:45.584Z,2.70
2022-09-01T00:09:45.863Z,2.60
2022-09-01T00:10:46.194Z,2.60
2022-09-01T00:11:50.301Z,2.60
2022-09-01T00:12:46.720Z,2.60
2022-09-01T00:13:47.001Z,2.70
2022-09-01T00:14:47.244Z,2.80
2022-09-01T00:15:47.643Z,2.70
2022-09-01T00:16:47.902Z,2.60
2022-09-01T00:17:48.187Z,2.60
2022-09-01T00:18:48.462Z,2.80
2022-09-01T00:19:48.774Z,2.60
2022-09-01T00:20:49.075Z,2.60
2022-09-01T00:21:49.294Z,2.60
2022-09-01T00:22:49.638Z,2.80
2022-09-01T00:23:49.862Z,2.60
2022-09-01T00:24:50.204Z,3.40
2022-09-01T00:25:50.491Z,2.70
2022-09-01T00:26:50.793Z,2.70
2022-09-01T00:27:51.098Z,2.70
2022-09-01T00:28:51.378Z,3.60
2022-09-01T00:29:51.667Z,3.40
2022-09-01T00:30:51.975Z,3.70
2022-09-01T00:31:52.210Z,4.20
2022-09-01T00:32:52.485Z,4.40
2022-09-01T00:33:52.803Z,4.30
2022-09-01T00:34:53.151Z,4.20
2022-09-01T00:35:53.320Z,4.20
2022-09-01T00:36:53.660Z,4.10
2022-09-01T00:37:53.970Z,3.90
2022-09-01T00:38:54.234Z,3.80
2022-09-01T00:39:54.583Z,3.90
2022-09-01T00:40:54.873Z,3.80
2022-09-01T00:41:55.250Z,4.00
2022-09-01T00:42:55.446Z,4.00
2022-09-01T00:43:55.746Z,4.00
2022-09-01T00:44:56.149Z,4.00
2022-09-01T00:45:56.422Z,4.10
2022-09-01T00:46:56.677Z,4.20
2022-09-01T00:47:56.876Z,4.10
2022-09-01T00:48:57.142Z,4.10
2022-09-01T00:49:57.430Z,4.00
2022-09-01T00:50:57.733Z,4.20
2022-09-01T00:51:58.029Z,4.20
2022-09-01T00:52:58.313Z,4.20
2022-09-01T00:53:58.609Z,4.00
2022-09-01T00:54:58.896Z,4.20
2022-09-01T00:55:59.223Z,4.20
2022-09-01T00:56:59.561Z,4.00
2022-09-01T00:57:59.839Z,4.10
2022-09-01T00:59:00.117Z,3.90
2022-09-01T01:00:00.518Z,4.00
2022-09-01T01:01:00.890Z,3.90
2022-09-01T01:02:01.032Z,3.60
2022-09-01T01:03:01.415Z,3.80
2022-09-01T01:04:01.599Z,3.50
2022-09-01T01:05:01.921Z,3.90
2022-09-01T01:06:02.267Z,3.90
2022-09-01T01:07:02.552Z,3.80
2022-09-01T01:08:02.868Z,3.70
2022-09-01T01:09:03.084Z,3.70
2022-09-01T01:10:03.421Z,3.90
2022-09-01T01:11:03.635Z,3.70
2022-09-01T01:12:03.937Z,3.70
2022-09-01T01:13:04.309Z,3.80
2022-09-01T01:14:04.497Z,3.80
2022-09-01T01:15:04.837Z,3.60
2022-09-01T01:16:04.988Z,3.90
2022-09-01T01:17:05.334Z,3.80
2022-09-01T01:18:05.557Z,3.70
2022-09-01T01:19:05.869Z,3.60
2022-09-01T01:20:06.149Z,3.70
2022-09-01T01:21:06.497Z,3.70
2022-09-01T01:22:06.825Z,4.00
2022-09-01T01:23:07.133Z,3.80
2022-09-01T01:24:07.426Z,4.30
2022-09-01T01:25:07.765Z,3.90
2022-09-01T01:26:08.053Z,3.80
2022-09-01T01:27:08.321Z,3.50
2022-09-01T01:28:08.687Z,3.70
2022-09-01T01:29:08.950Z,3.80
2022-09-01T01:30:09.377Z,3.60
2022-09-01T01:31:09.511Z,3.90
2022-09-01T01:32:09.701Z,3.40
2022-09-01T01:33:09.980Z,3.70
2022-09-01T01:34:10.228Z,3.60
2022-09-01T01:35:10.621Z,3.50
2022-09-01T01:36:10.819Z,3.40
2022-09-01T01:37:11.084Z,3.50
2022-09-01T01:38:11.402Z,3.40
2022-09-01T01:39:11.720Z,3.50
2022-09-01T01:40:12.064Z,3.80
2022-09-01T01:41:12.322Z,3.60
2022-09-01T01:42:12.606Z,3.70
2022-09-01T01:43:12.795Z,4.00
2022-09-01T01:44:13.253Z,3.70
2022-09-01T01:45:13.582Z,4.10
2022-09-01T01:46:13.917Z,4.00
2022-09-01T01:47:14.172Z,3.80
2022-09-01T01:48:14.507Z,3.90
2022-09-01T01:49:14.792Z,3.60
2022-09-01T01:50:15.142Z,3.80
2022-09-01T01:51:15.426Z,3.70
2022-09-01T01:52:15.705Z,3.80
2022-09-01T01:53:15.978Z,3.90
2022-09-01T01:54:16.358Z,3.80
2022-09-01T01:55:16.683Z,3.80
2022-09-01T01:56:16.869Z,3.90
2022-09-01T01:57:17.275Z,3.90
2022-09-01T01:58:17.464Z,3.90
2022-09-01T01:59:17.797Z,3.80
2022-09-01T02:00:18.081Z,3.70
2022-09-01T02:01:19.401Z,4.00
2022-09-01T02:02:18.792Z,4.20
2022-09-01T02:03:18.855Z,4.00
2022-09-01T02:04:19.233Z,4.10
2022-09-01T02:05:19.544Z,4.20
2022-09-01T02:06:19.850Z,3.90
2022-09-01T02:07:20.178Z,3.90
2022-09-01T02:08:20.587Z,4.00
2022-09-01T02:09:20.804Z,3.80
2022-09-01T02:10:21.051Z,3.80
2022-09-01T02:11:21.432Z,4.00
2022-09-01T02:12:21.649Z,4.40
2022-09-01T02:13:21.928Z,4.30
2022-09-01T02:14:22.273Z,4.50
2022-09-01T02:15:22.526Z,4.50
2022-09-01T02:16:22.890Z,4.60
2022-09-01T02:17:23.075Z,4.20
2022-09-01T02:18:23.446Z,4.20
2022-09-01T02:19:23.730Z,4.20
2022-09-01T02:20:24.007Z,4.20
2022-09-01T02:21:24.388Z,4.30
2022-09-01T02:22:24.797Z,4.40
2022-09-01T02:23:25.006Z,4.20
2022-09-01T02:24:25.307Z,4.20
2022-09-01T02:25:25.581Z,4.30
2022-09-01T02:26:25.904Z,4.20
2022-09-01T02:27:26.179Z,4.20
2022-09-01T02:28:26.575Z,4.00
2022-09-01T02:29:26.806Z,3.90
2022-09-01T02:30:27.118Z,4.00
2022-09-01T02:31:27.444Z,4.20
2022-09-01T02:32:27.638Z,4.20
2022-09-01T02:33:27.983Z,4.10
2022-09-01T02:34:28.357Z,4.20
2022-09-01T02:35:28.526Z,4.30
2022-09-01T02:36:28.861Z,4.30
2022-09-01T02:37:29.147Z,4.20
2022-09-01T02:38:29.433Z,4.40
2022-09-01T02:39:29.701Z,4.30
2022-09-01T02:40:30.066Z,4.30
2022-09-01T02:41:30.271Z,4.10
2022-09-01T02:42:30.569Z,4.40
2022-09-01T02:43:30.809Z,4.40
2022-09-01T02:44:31.196Z,4.30
2022-09-01T02:45:31.397Z,4.10
2022-09-01T02:46:31.751Z,4.30
2022-09-01T02:47:31.933Z,4.60
2022-09-01T02:48:32.228Z,4.40
2022-09-01T02:49:32.490Z,4.50
2022-09-01T02:50:32.762Z,4.20
2022-09-01T02:51:33.096Z,4.40
2022-09-01T02:52:33.341Z,4.30
2022-09-01T02:53:33.547Z,4.60
2022-09-01T02:54:33.849Z,4.60
2022-09-01T02:55:34.146Z,4.80
2022-09-01T02:56:34.433Z,4.80
2022-09-01T02:57:34.745Z,4.60
2022-09-01T02:58:35.007Z,4.70
2022-09-01T02:59:35.337Z,4.70
2022-09-01T03:00:35.660Z,4.60
2022-09-01T03:01:35.953Z,4.50
2022-09-01T03:02:36.252Z,4.40
2022-09-01T03:03:36.563Z,4.50
2022-09-01T03:04:36.854Z,4.30
2022-09-01T03:05:37.191Z,4.20
2022-09-01T03:06:37.408Z,4.70
2022-09-01T03:07:37.704Z,4.50
2022-09-01T03:08:38.012Z,4.30
2022-09-01T03:09:38.349Z,4.50
2022-09-01T03:10:38.634Z,4.70
2022-09-01T03:11:38.935Z,4.50
2022-09-01T03:12:39.246Z,4.50
2022-09-01T03:13:39.541Z,4.30
2022-09-01T03:14:39.813Z,4.50
2022-09-01T03:15:40.127Z,7.30
2022-09-01T03:16:40.533Z,4.60
2022-09-01T03:17:40.711Z,4.60
2022-09-01T03:18:41.040Z,5.00
2022-09-01T03:19:41.386Z,4.60
2022-09-01T03:20:41.762Z,4.70
2022-09-01T03:21:41.914Z,4.80
2022-09-01T03:22:42.237Z,4.40
2022-09-01T03:23:42.567Z,4.70
2022-09-01T03:24:43.064Z,4.20
2022-09-01T03:25:43.183Z,4.70
2022-09-01T03:26:43.468Z,4.60
2022-09-01T03:27:43.872Z,4.60
2022-09-01T03:28:44.096Z,4.70
2022-09-01T03:29:44.430Z,4.70
2022-09-01T03:30:44.725Z,4.70
2022-09-01T03:31:44.980Z,4.70
2022-09-01T03:32:45.257Z,4.60
2022-09-01T03:33:45.506Z,4.20
2022-09-01T03:34:45.880Z,4.50
2022-09-01T03:35:46.156Z,4.60
2022-09-01T03:36:46.435Z,4.70
2022-09-01T03:37:46.855Z,4.70
2022-09-01T03:38:47.004Z,4.50
2022-09-01T03:39:47.349Z,4.70
2022-09-01T03:40:47.553Z,4.60
2022-09-01T03:41:47.875Z,4.70
2022-09-01T03:42:48.195Z,4.70
2022-09-01T03:43:48.647Z,4.50
2022-09-01T03:44:48.730Z,4.50
2022-09-01T03:45:49.081Z,4.60
2022-09-01T03:46:49.284Z,4.50
2022-09-01T03:47:49.555Z,4.50
2022-09-01T03:48:49.906Z,4.40
2022-09-01T03:49:50.199Z,4.60
2022-09-01T03:50:50.542Z,4.40
2022-09-01T03:51:50.816Z,4.30
2022-09-01T03:52:51.135Z,4.70
2022-09-01T03:53:51.407Z,4.60
2022-09-01T03:54:51.682Z,4.50
2022-09-01T03:55:51.966Z,4.40
2022-09-01T03:56:52.305Z,4.30
2022-09-01T03:57:52.581Z,4.20
2022-09-01T03:58:52.884Z,4.40
2022-09-01T03:59:53.175Z,4.30
2022-09-01T04:00:53.465Z,4.40
2022-09-01T04:01:53.815Z,4.20
2022-09-01T04:02:56.222Z,4.50
2022-09-01T04:03:54.268Z,4.30
2022-09-01T04:04:54.611Z,4.40
2022-09-01T04:05:54.846Z,4.30
2022-09-01T04:06:55.157Z,4.30
2022-09-01T04:07:55.411Z,4.40
2022-09-01T04:08:55.721Z,4.40
2022-09-01T04:09:55.975Z,4.70
2022-09-01T04:10:56.318Z,4.60
2022-09-01T04:11:56.610Z,4.60
2022-09-01T04:12:56.785Z,4.70
2022-09-01T04:13:57.107Z,4.50
2022-09-01T04:14:57.443Z,4.60
2022-09-01T04:15:57.750Z,4.60
2022-09-01T04:16:58.192Z,4.60
2022-09-01T04:17:58.422Z,4.40
2022-09-01T04:18:58.724Z,4.70
2022-09-01T04:19:58.946Z,4.40
2022-09-01T04:20:59.223Z,4.50
2022-09-01T04:21:59.494Z,4.50
2022-09-01T04:22:59.900Z,4.60
2022-09-01T04:24:00.111Z,4.30
2022-09-01T04:25:00.335Z,4.40
2022-09-01T04:26:00.712Z,4.30
2022-09-01T04:27:00.935Z,4.70
2022-09-01T04:28:01.168Z,4.40
2022-09-01T04:29:01.404Z,4.40
2022-09-01T04:30:01.628Z,4.60
2022-09-01T04:31:02.415Z,4.50
2022-09-01T04:32:02.418Z,4.60
2022-09-01T04:33:02.706Z,4.80
2022-09-01T04:34:02.896Z,4.60
2022-09-01T04:35:03.186Z,4.50
2022-09-01T04:36:03.445Z,4.80
2022-09-01T04:37:03.731Z,4.80
2022-09-01T04:38:03.972Z,4.70
2022-09-01T04:39:04.180Z,4.60
2022-09-01T04:40:04.582Z,4.40
2022-09-01T04:41:04.760Z,4.50
2022-09-01T04:42:05.113Z,4.30
2022-09-01T04:43:05.454Z,4.70
2022-09-01T04:44:05.768Z,4.90
2022-09-01T04:45:10.676Z,4.70
2022-09-01T04:46:07.260Z,4.70
2022-09-01T04:47:06.461Z,4.50
2022-09-01T04:48:06.728Z,4.60
2022-09-01T04:49:06.981Z,4.80
2022-09-01T04:50:08.253Z,4.80
2022-09-01T04:51:07.564Z,4.50
2022-09-01T04:52:07.870Z,4.80
2022-09-01T04:53:08.076Z,4.60
2022-09-01T04:54:08.352Z,4.60
2022-09-01T04:55:08.624Z,4.60
2022-09-01T04:56:08.818Z,5.50
2022-09-01T04:57:09.293Z,5.90
2022-09-01T04:58:20.740Z,6.20
2022-09-01T04:59:10.785Z,6.60
2022-09-01T05:00:10.090Z,6.40
2022-09-01T05:01:10.322Z,5.70
2022-09-01T05:02:10.615Z,6.60
2022-09-01T05:03:10.847Z,11.20
2022-09-01T05:04:11.135Z,6.20
2022-09-01T05:05:11.806Z,4.90
2022-09-01T05:06:11.621Z,4.60
2022-09-01T05:07:11.876Z,4.50
2022-09-01T05:08:12.163Z,4.60
2022-09-01T05:09:12.369Z,4.30
2022-09-01T05:10:12.827Z,4.60
2022-09-01T05:11:13.473Z,4.30
2022-09-01T05:12:15.911Z,4.60
2022-09-01T05:13:13.454Z,4.60
2022-09-01T05:14:13.790Z,4.90
2022-09-01T05:15:14.010Z,4.40
2022-09-01T05:16:14.294Z,5.00
2022-09-01T05:17:14.595Z,4.30
2022-09-01T05:18:14.830Z,4.50
2022-09-01T05:19:15.121Z,4.20
2022-09-01T05:20:15.346Z,4.80
2022-09-01T05:21:15.654Z,4.30
2022-09-01T05:22:15.865Z,4.40
2022-09-01T05:23:16.110Z,4.70
2022-09-01T05:24:16.368Z,4.60
2022-09-01T05:25:17.094Z,4.30
2022-09-01T05:26:16.940Z,4.30
2022-09-01T05:27:17.306Z,4.40
2022-09-01T05:28:17.533Z,4.40
2022-09-01T05:29:17.815Z,4.30
2022-09-01T05:30:18.090Z,4.20
2022-09-01T05:31:18.688Z,4.50
2022-09-01T05:32:18.565Z,4.30
2022-09-01T05:33:21.812Z,4.00
2022-09-01T05:34:19.077Z,4.30
2022-09-01T05:35:19.481Z,4.40
2022-09-01T05:36:19.730Z,4.90
2022-09-01T05:37:20.001Z,4.30
2022-09-01T05:38:20.400Z,4.30
2022-09-01T05:39:20.673Z,4.70
2022-09-01T05:40:20.864Z,4.90
2022-09-01T05:41:21.381Z,4.50
2022-09-01T05:42:21.406Z,4.80
2022-09-01T05:43:27.257Z,4.80
2022-09-01T05:44:22.086Z,4.70
2022-09-01T05:45:22.341Z,4.60
2022-09-01T05:46:22.568Z,4.60
2022-09-01T05:47:25.331Z,4.80
2022-09-01T05:48:23.064Z,5.00
2022-09-01T05:49:23.314Z,5.50
2022-09-01T05:50:23.614Z,5.10
2022-09-01T05:51:43.384Z,5.10
2022-09-01T05:52:25.143Z,5.20
2022-09-01T05:53:24.353Z,5.30
2022-09-01T05:54:24.732Z,5.00
2022-09-01T05:55:25.025Z,5.00
2022-09-01T05:56:25.268Z,5.00
2022-09-01T05:57:40.691Z,5.00
2022-09-01T05:58:26.894Z,5.40
2022-09-01T05:59:26.473Z,5.00
2022-09-01T06:00:26.303Z,4.90
2022-09-01T06:01:26.705Z,5.40
2022-09-01T06:02:27.317Z,5.00
2022-09-01T06:03:27.354Z,4.90
2022-09-01T06:04:27.421Z,4.90
2022-09-01T06:05:27.683Z,4.40
2022-09-01T06:06:27.946Z,4.40
2022-09-01T06:07:28.211Z,4.20
2022-09-01T06:08:28.500Z,4.00
2022-09-01T06:09:28.686Z,3.90
2022-09-01T06:10:28.920Z,3.80
2022-09-01T06:11:29.177Z,3.90
2022-09-01T06:12:29.436Z,3.80
2022-09-01T06:13:29.695Z,3.80
2022-09-01T06:14:30.008Z,3.60
2022-09-01T06:15:30.372Z,3.70
2022-09-01T06:16:30.610Z,3.50
2022-09-01T06:17:30.841Z,3.40
2022-09-01T06:18:31.151Z,3.70
2022-09-01T06:19:36.227Z,3.80
2022-09-01T06:20:32.712Z,3.80
2022-09-01T06:21:32.099Z,3.60
2022-09-01T06:22:32.320Z,3.50
2022-09-01T06:23:32.618Z,3.40
2022-09-01T06:24:32.863Z,3.60
2022-09-01T06:25:33.136Z,3.40
2022-09-01T06:26:33.422Z,3.70
2022-09-01T06:27:33.618Z,5.00
2022-09-01T06:28:33.986Z,4.30
2022-09-01T06:29:34.222Z,4.20
2022-09-01T06:30:34.503Z,3.90
2022-09-01T06:31:34.774Z,3.40
2022-09-01T06:32:35.027Z,3.40
2022-09-01T06:33:35.310Z,3.60
2022-09-01T06:34:35.511Z,3.50
2022-09-01T06:35:35.779Z,3.70
2022-09-01T06:36:35.998Z,3.80
2022-09-01T06:37:36.338Z,3.60
2022-09-01T06:38:36.645Z,3.90
2022-09-01T06:39:36.920Z,3.80
2022-09-01T06:40:37.298Z,3.90
2022-09-01T06:41:37.495Z,4.30
2022-09-01T06:42:37.786Z,4.00
2022-09-01T06:43:38.051Z,4.20
2022-09-01T06:44:41.293Z,4.20
2022-09-01T06:45:38.663Z,4.50
2022-09-01T06:46:38.981Z,4.80
2022-09-01T06:47:39.215Z,4.20
2022-09-01T06:48:40.389Z,4.30
2022-09-01T06:49:39.812Z,4.40
2022-09-01T06:51:41.394Z,4.40
2022-09-01T06:53:41.928Z,4.20
2022-09-01T06:54:41.211Z,4.30
2022-09-01T06:55:41.491Z,4.20
2022-09-01T06:56:44.695Z,4.30
2022-09-01T06:58:43.387Z,4.40
2022-09-01T06:59:42.605Z,4.10
2022-09-01T07:00:42.884Z,4.00
2022-09-01T07:01:43.187Z,4.10
2022-09-01T07:02:43.480Z,4.30
2022-09-01T07:03:44.638Z,4.50
2022-09-01T07:04:44.019Z,4.50
2022-09-01T07:06:01.350Z,4.30
2022-09-01T07:07:53.385Z,4.40
2022-09-01T07:09:49.970Z,4.30
2022-09-01T07:16:52.517Z,4.90
2022-09-01T07:17:48.991Z,4.80
2022-09-01T07:18:58.353Z,5.00
2022-09-01T07:19:49.535Z,5.10
2022-09-01T07:23:06.660Z,5.10
2022-09-01T07:24:10.280Z,5.00
2022-09-01T07:25:11.477Z,4.90
2022-09-01T07:26:06.542Z,4.70
2022-09-01T07:26:51.546Z,4.60
2022-09-01T07:27:50.855Z,4.70
2022-09-01T07:28:51.418Z,4.60
2022-09-01T07:29:52.401Z,4.50
2022-09-01T07:30:51.679Z,4.40
2022-09-01T07:32:41.122Z,4.60
2022-09-01T07:32:53.871Z,5.00
2022-09-01T07:33:54.354Z,5.10
2022-09-01T07:34:52.921Z,4.80
2022-09-01T07:39:55.686Z,4.20
2022-09-01T07:43:56.534Z,4.20
2022-09-01T07:44:55.989Z,4.10
2022-09-01T07:45:59.599Z,4.10
2022-09-01T07:47:57.622Z,3.90
2022-09-01T07:50:37.462Z,4.20
2022-09-01T07:51:59.768Z,4.20
2022-09-01T07:52:58.013Z,4.00
2022-09-01T07:53:58.314Z,4.00
2022-09-01T07:54:58.522Z,3.90
2022-09-01T07:55:58.801Z,4.20
2022-09-01T07:56:59.067Z,4.10
2022-09-01T07:57:59.305Z,4.20
2022-09-01T07:58:59.615Z,4.20
2022-09-01T07:59:59.849Z,4.30
2022-09-01T08:01:00.113Z,4.50
2022-09-01T08:02:00.360Z,4.30
2022-09-01T08:03:00.675Z,4.90
2022-09-01T08:04:00.899Z,5.10
2022-09-01T08:05:01.112Z,4.90
2022-09-01T08:06:01.399Z,5.50
2022-09-01T08:07:01.682Z,5.30
2022-09-01T08:08:01.925Z,5.30
2022-09-01T08:09:02.253Z,5.00
2022-09-01T08:10:02.493Z,5.10
2022-09-01T08:11:05.775Z,4.80
2022-09-01T08:12:03.324Z,5.00
2022-09-01T08:13:03.280Z,5.30
2022-09-01T08:14:03.651Z,4.90
2022-09-01T08:16:07.517Z,5.20
2022-09-01T08:18:05.739Z,5.50
2022-09-01T08:19:05.490Z,5.10
2022-09-01T08:20:06.251Z,5.90
2022-09-01T08:21:05.522Z,5.40
2022-09-01T08:22:05.779Z,5.50
2022-09-01T08:23:06.057Z,5.50
2022-09-01T08:24:06.354Z,5.30
2022-09-01T08:25:06.564Z,5.20
2022-09-01T08:26:06.822Z,5.00
2022-09-01T08:27:07.122Z,4.90
2022-09-01T08:28:07.354Z,5.00
2022-09-01T08:29:07.643Z,4.60
2022-09-01T08:30:07.920Z,5.30
2022-09-01T08:31:11.198Z,5.40
2022-09-01T08:32:08.473Z,5.70
2022-09-01T08:33:11.794Z,5.10
2022-09-01T08:34:09.178Z,4.90
2022-09-01T08:35:09.398Z,5.60
2022-09-01T08:36:10.108Z,5.30
2022-09-01T08:37:09.965Z,5.30
2022-09-01T08:38:10.201Z,7.10
2022-09-01T08:39:10.456Z,5.40
2022-09-01T08:40:10.832Z,5.00
2022-09-01T08:41:10.994Z,5.20
2022-09-01T08:42:11.277Z,5.00
2022-09-01T08:43:15.324Z,5.50
2022-09-01T08:44:11.807Z,5.00
2022-09-01T08:45:12.034Z,5.90
2022-09-01T08:46:12.389Z,5.80
2022-09-01T08:47:13.744Z,5.70
2022-09-01T08:48:57.180Z,6.30
2022-09-01T08:49:30.356Z,5.70
2022-09-01T08:50:14.532Z,6.20
2022-09-01T08:51:17.181Z,5.20
2022-09-01T08:52:15.542Z,5.10
2022-09-01T08:53:14.357Z,4.80
2022-09-01T08:54:14.552Z,5.20
2022-09-01T08:55:14.863Z,5.00
2022-09-01T08:56:15.172Z,5.00
2022-09-01T08:57:15.480Z,4.80
2022-09-01T08:58:15.661Z,4.50
2022-09-01T08:59:15.932Z,5.70
2022-09-01T09:00:16.310Z,5.10
2022-09-01T09:01:17.785Z,5.40
2022-09-01T09:02:16.851Z,6.60
2022-09-01T09:03:17.164Z,5.60
2022-09-01T09:04:17.432Z,5.10
2022-09-01T09:05:17.708Z,5.10
2022-09-01T09:06:18.005Z,5.70
2022-09-01T09:07:18.313Z,5.30
2022-09-01T09:08:18.531Z,5.40
2022-09-01T09:09:18.932Z,5.20
2022-09-01T09:10:19.145Z,5.90
2022-09-01T09:11:19.411Z,5.10
2022-09-01T09:12:19.704Z,4.90
2022-09-01T09:13:20.194Z,5.10
2022-09-01T09:14:20.213Z,5.40
2022-09-01T09:15:20.467Z,4.90
2022-09-01T09:16:20.744Z,5.80
2022-09-01T09:17:21.028Z,5.50
2022-09-01T09:18:38.773Z,5.10
2022-09-01T09:19:22.557Z,5.20
2022-09-01T09:20:21.910Z,4.70
2022-09-01T09:21:22.170Z,5.50
2022-09-01T09:22:22.508Z,5.10
2022-09-01T09:23:22.915Z,5.00
2022-09-01T09:24:23.062Z,4.70
2022-09-01T09:25:23.208Z,5.00
2022-09-01T09:26:23.512Z,5.20
2022-09-01T09:27:23.766Z,5.20
2022-09-01T09:28:24.491Z,4.60
2022-09-01T09:29:24.280Z,4.80
2022-09-01T09:30:24.814Z,4.70
2022-09-01T09:31:24.846Z,4.80
2022-09-01T09:32:39.316Z,4.90
2022-09-01T09:33:49.824Z,4.70
2022-09-01T09:34:26.572Z,4.30
2022-09-01T09:35:25.864Z,4.30
2022-09-01T09:36:26.125Z,4.60
2022-09-01T09:37:26.445Z,4.20
2022-09-01T09:38:26.684Z,4.50
2022-09-01T09:39:26.967Z,4.50
2022-09-01T09:40:27.387Z,5.10
2022-09-01T09:41:27.674Z,4.50
2022-09-01T09:42:34.028Z,3.90
2022-09-01T09:43:29.047Z,3.90
2022-09-01T09:44:28.297Z,4.70
2022-09-01T09:45:28.592Z,5.20
2022-09-01T09:46:28.949Z,4.30
2022-09-01T09:47:43.172Z,4.40
2022-09-01T09:48:30.450Z,4.70
2022-09-01T09:49:34.764Z,4.10
2022-09-01T09:50:31.000Z,4.30
2022-09-01T09:51:30.271Z,4.20
2022-09-01T09:52:30.536Z,3.90
2022-09-01T09:53:30.821Z,4.10
2022-09-01T09:54:31.061Z,4.10
2022-09-01T09:55:31.410Z,4.00
2022-09-01T09:56:31.613Z,4.50
2022-09-01T09:57:31.957Z,4.60
2022-09-01T09:58:32.223Z,4.60
2022-09-01T09:59:54.149Z,4.50
2022-09-01T10:00:33.703Z,4.50
2022-09-01T10:01:33.038Z,5.30
2022-09-01T10:02:33.324Z,4.20
2022-09-01T10:03:33.507Z,4.20
2022-09-01T10:04:33.803Z,4.40
2022-09-01T10:05:34.088Z,4.40
2022-09-01T10:06:34.340Z,4.10
2022-09-01T10:07:34.671Z,4.50
2022-09-01T10:08:34.908Z,4.20
2022-09-01T10:09:35.385Z,4.90
2022-09-01T10:10:35.692Z,3.90
2022-09-01T10:11:36.114Z,4.10
2022-09-01T10:12:37.232Z,4.30
2022-09-01T10:13:36.696Z,4.70
2022-09-01T10:14:52.178Z,4.30
2022-09-01T10:15:38.167Z,4.60
2022-09-01T10:16:37.374Z,3.80
2022-09-01T10:17:37.725Z,3.00
2022-09-01T10:18:37.896Z,3.20
2022-09-01T10:19:38.289Z,3.10
2022-09-01T10:20:38.486Z,3.10
2022-09-01T10:21:38.740Z,2.90
2022-09-01T10:22:39.023Z,3.30
2022-09-01T10:23:41.464Z,2.90
2022-09-01T10:24:45.379Z,3.00
2022-09-01T10:25:40.850Z,2.90
2022-09-01T10:26:40.125Z,3.00
2022-09-01T10:27:40.347Z,2.90
2022-09-01T10:28:40.631Z,2.90
2022-09-01T10:29:49.306Z,3.00
2022-09-01T10:30:42.318Z,3.00
2022-09-01T10:31:41.506Z,2.80
2022-09-01T10:32:49.279Z,2.70
2022-09-01T10:33:43.103Z,3.00
2022-09-01T10:34:42.413Z,2.90
2022-09-01T10:35:42.670Z,2.80
2022-09-01T10:36:46.939Z,3.50
2022-09-01T10:37:43.158Z,3.00
2022-09-01T10:38:50.431Z,3.00
2022-09-01T10:39:44.738Z,2.90
2022-09-01T10:40:44.192Z,3.10
2022-09-01T10:41:44.283Z,3.00
2022-09-01T10:42:45.333Z,3.20
2022-09-01T10:43:44.820Z,3.80
2022-09-01T10:44:45.065Z,4.40
2022-09-01T10:45:51.244Z,3.60
2022-09-01T10:46:50.988Z,3.30
2022-09-01T10:47:45.987Z,3.80
2022-09-01T10:48:51.891Z,3.60
2022-09-01T10:49:47.635Z,3.10
2022-09-01T10:50:46.769Z,3.60
2022-09-01T10:51:51.765Z,2.80
2022-09-01T10:52:50.523Z,2.60
2022-09-01T10:53:47.646Z,2.80
2022-09-01T10:54:51.773Z,2.60
2022-09-01T10:55:48.160Z,2.40
2022-09-01T10:56:51.876Z,2.30
2022-09-01T10:57:48.664Z,2.40
2022-09-01T10:59:56.735Z,2.50
2022-09-01T11:01:51.233Z,2.40
2022-09-01T11:02:50.226Z,2.40
2022-09-01T11:03:51.904Z,2.30
2022-09-01T11:04:50.894Z,2.50
2022-09-01T11:05:52.739Z,2.20
2022-09-01T11:08:20.982Z,2.20
2022-09-01T11:08:52.889Z,2.30
2022-09-01T11:09:57.482Z,2.10
2022-09-01T11:10:53.579Z,2.40
2022-09-01T11:11:52.842Z,2.50
2022-09-01T11:12:53.183Z,2.10
2022-09-01T11:13:53.497Z,2.30
2022-09-01T11:14:53.675Z,2.90
2022-09-01T11:15:53.925Z,2.40
2022-09-01T11:16:54.181Z,2.30
2022-09-01T11:17:54.567Z,3.00
2022-09-01T11:18:54.757Z,2.20
2022-09-01T11:19:55.545Z,2.40
2022-09-01T11:20:55.301Z,2.40
2022-09-01T11:21:55.584Z,2.60
2022-09-01T11:22:55.889Z,2.30
2022-09-01T11:23:56.090Z,2.20
2022-09-01T11:25:02.419Z,2.30
2022-09-01T11:26:57.957Z,2.40
2022-09-01T11:27:57.258Z,2.10
2022-09-01T11:28:57.485Z,2.20
2022-09-01T11:29:57.735Z,2.20
2022-09-01T11:30:57.973Z,2.20
2022-09-01T11:31:58.341Z,2.20
2022-09-01T11:32:58.612Z,2.30
2022-09-01T11:33:58.890Z,2.20
2022-09-01T11:34:59.132Z,2.30
2022-09-01T11:35:59.414Z,2.10
2022-09-01T11:36:59.679Z,2.20
2022-09-01T11:37:59.995Z,2.60
2022-09-01T11:39:00.266Z,18.60
2022-09-01T11:40:00.522Z,3.00
2022-09-01T11:41:00.822Z,2.40
2022-09-01T11:42:04.105Z,2.20
2022-09-01T11:43:01.449Z,2.40
2022-09-01T11:44:01.701Z,2.40
2022-09-01T11:45:01.986Z,2.30
2022-09-01T11:46:02.278Z,2.20
2022-09-01T11:47:02.535Z,2.20
2022-09-01T11:48:02.824Z,2.20
2022-09-01T11:49:03.099Z,2.60
2022-09-01T11:50:03.377Z,2.60
2022-09-01T11:51:03.673Z,2.20
2022-09-01T11:52:03.919Z,2.30
2022-09-01T11:53:05.425Z,2.20
2022-09-01T11:54:04.395Z,2.30
2022-09-01T11:55:04.799Z,2.60
2022-09-01T11:56:05.022Z,2.40
2022-09-01T11:57:05.265Z,3.00
2022-09-01T11:58:05.545Z,2.20
2022-09-01T11:59:05.799Z,2.40
2022-09-01T12:00:06.121Z,2.10
2022-09-01T12:01:06.366Z,2.20
2022-09-01T12:02:06.658Z,2.00
2022-09-01T12:03:07.442Z,2.20
2022-09-01T12:04:07.119Z,2.50
2022-09-01T12:05:07.327Z,2.20
2022-09-01T12:06:07.543Z,2.30
2022-09-01T12:07:10.730Z,2.20
2022-09-01T12:08:08.145Z,2.20
2022-09-01T12:09:08.419Z,2.50
2022-09-01T12:10:08.658Z,2.50
2022-09-01T12:11:08.906Z,2.40
2022-09-01T12:12:09.231Z,2.30
2022-09-01T12:13:09.484Z,2.20
2022-09-01T12:14:11.620Z,2.60
2022-09-01T12:15:10.032Z,2.60
2022-09-01T12:16:18.908Z,2.40
2022-09-01T12:17:11.609Z,2.20
2022-09-01T12:18:10.915Z,2.40
2022-09-01T12:19:11.188Z,3.30
2022-09-01T12:20:11.546Z,2.60
2022-09-01T12:21:11.779Z,2.40
2022-09-01T12:22:12.015Z,2.20
2022-09-01T12:23:12.308Z,2.30
2022-09-01T12:24:12.515Z,2.30
2022-09-01T12:25:12.916Z,2.10
2022-09-01T12:26:13.187Z,2.20
2022-09-01T12:27:13.560Z,2.40
2022-09-01T12:28:13.810Z,2.20
2022-09-01T12:29:13.969Z,2.30
2022-09-01T12:30:14.353Z,2.20
2022-09-01T12:31:14.569Z,2.60
2022-09-01T12:32:14.995Z,2.30
2022-09-01T12:33:23.512Z,2.30
2022-09-01T12:34:17.263Z,2.10
2022-09-01T12:35:15.621Z,2.20
2022-09-01T12:36:15.970Z,2.20
2022-09-01T12:37:16.284Z,2.20
2022-09-01T12:38:16.581Z,2.30
2022-09-01T12:39:16.797Z,2.20
2022-09-01T12:40:17.123Z,2.40
2022-09-01T12:41:17.325Z,2.10
2022-09-01T12:42:17.513Z,2.30
2022-09-01T12:43:17.930Z,2.30
2022-09-01T12:44:18.147Z,2.40
2022-09-01T12:45:18.478Z,2.30
2022-09-01T12:46:18.712Z,2.40
2022-09-01T12:47:18.952Z,2.40
2022-09-01T12:48:19.721Z,2.50
2022-09-01T12:49:19.571Z,2.30
2022-09-01T12:50:19.769Z,2.30
2022-09-01T12:51:21.284Z,2.50
2022-09-01T12:52:20.547Z,2.30
2022-09-01T12:53:20.977Z,2.50
2022-09-01T12:54:21.328Z,2.60
2022-09-01T12:56:22.491Z,2.30
2022-09-01T12:57:21.768Z,2.40
2022-09-01T12:58:22.036Z,2.40
2022-09-01T12:59:25.367Z,2.40
2022-09-01T13:00:23.513Z,2.50
2022-09-01T13:01:22.799Z,2.50
2022-09-01T13:02:23.233Z,3.30
2022-09-01T13:03:23.711Z,2.50
2022-09-01T13:04:23.631Z,2.20
2022-09-01T13:05:28.468Z,2.60
2022-09-01T13:06:25.241Z,2.40
2022-09-01T13:07:24.379Z,2.50
2022-09-01T13:08:24.616Z,2.80
2022-09-01T13:09:24.866Z,2.60
2022-09-01T13:10:25.177Z,2.70
2022-09-01T13:11:25.487Z,2.70
2022-09-01T13:12:25.794Z,2.40
2022-09-01T13:13:25.970Z,2.40
2022-09-01T13:14:26.299Z,2.50
2022-09-01T13:15:26.650Z,2.50
2022-09-01T13:16:26.913Z,2.70
2022-09-01T13:17:27.192Z,3.30
2022-09-01T13:18:27.495Z,2.70
2022-09-01T13:19:30.193Z,3.10
2022-09-01T13:20:27.982Z,3.80
2022-09-01T13:21:28.381Z,3.10
2022-09-01T13:22:28.625Z,3.60
2022-09-01T13:23:28.913Z,2.60
2022-09-01T13:24:31.590Z,2.50
2022-09-01T13:25:29.503Z,2.70
2022-09-01T13:26:29.878Z,2.50
2022-09-01T13:27:30.178Z,2.60
2022-09-01T13:28:30.696Z,2.70
2022-09-01T13:29:30.674Z,2.60
2022-09-01T13:30:30.887Z,2.40
2022-09-01T13:31:31.771Z,2.60
2022-09-01T13:32:31.567Z,3.10
2022-09-01T13:34:09.229Z,2.40
2022-09-01T13:34:33.257Z,2.40
2022-09-01T13:35:32.295Z,2.70
2022-09-01T13:36:51.692Z,2.30
2022-09-01T13:37:33.833Z,2.40
2022-09-01T13:38:33.073Z,2.50
2022-09-01T13:39:33.358Z,2.60
2022-09-01T13:40:33.870Z,2.40
2022-09-01T13:41:34.024Z,2.40
2022-09-01T13:42:35.148Z,2.50
2022-09-01T13:43:34.876Z,2.60
2022-09-01T13:44:35.464Z,2.60
2022-09-01T13:45:35.241Z,2.50
2022-09-01T13:46:35.575Z,2.80
2022-09-01T13:48:15.307Z,3.20
2022-09-01T13:50:06.121Z,2.50
2022-09-01T13:51:37.823Z,2.50
2022-09-01T13:52:37.159Z,2.60
2022-09-01T13:53:37.295Z,2.60
2022-09-01T13:54:37.595Z,2.70